createdAt,value
2018-03-01T00:00:51.486Z,978.29
2018-03-01T00:01:51.527Z,978.25
2018-03-01T00:02:51.474Z,978.24
2018-03-01T00:03:51.463Z,978.26
2018-03-01T00:04:51.451Z,978.32
2018-03-01T00:05:51.433Z,978.27
2018-03-01T00:06:51.462Z,978.31
2018-03-01T00:07:51.406Z,978.33
2018-03-01T00:08:51.400Z,978.31
2018-03-01T00:09:51.382Z,978.33
2018-03-01T00:10:51.370Z,978.31
2018-03-01T00:11:51.398Z,978.30
2018-03-01T00:12:51.346Z,978.32
2018-03-01T00:13:51.330Z,978.25
2018-03-01T00:14:51.316Z,978.23
2018-03-01T00:15:51.304Z,978.33
2018-03-01T00:16:51.332Z,978.40
2018-03-01T00:17:51.282Z,978.38
2018-03-01T00:18:51.265Z,978.34
2018-03-01T00:19:51.247Z,978.36
2018-03-01T00:20:51.896Z,978.30
2018-03-01T00:21:51.271Z,978.35
2018-03-01T00:22:51.210Z,978.36
2018-03-01T00:23:51.199Z,978.39
2018-03-01T00:24:51.184Z,978.36
2018-03-01T00:25:51.215Z,978.35
2018-03-01T00:26:51.212Z,978.36
2018-03-01T00:27:51.156Z,978.34
2018-03-01T00:28:51.139Z,978.30
2018-03-01T00:29:51.135Z,978.27
2018-03-01T00:30:51.116Z,978.22
2018-03-01T00:31:51.143Z,978.24
2018-03-01T00:32:51.088Z,978.22
2018-03-01T00:33:51.077Z,978.20
2018-03-01T00:34:51.065Z,978.19
2018-03-01T00:35:51.050Z,978.20
2018-03-01T00:36:51.076Z,978.22
2018-03-01T00:37:51.027Z,978.18
2018-03-01T00:38:51.010Z,978.21
2018-03-01T00:39:50.998Z,978.22
2018-03-01T00:40:50.983Z,978.24
2018-03-01T00:41:51.655Z,978.18
2018-03-01T00:42:50.982Z,978.20
2018-03-01T00:43:50.942Z,978.16
2018-03-01T00:44:50.932Z,978.13
2018-03-01T00:45:50.919Z,978.09
2018-03-01T00:46:50.944Z,978.11
2018-03-01T00:47:50.893Z,978.12
2018-03-01T00:48:50.879Z,978.10
2018-03-01T00:49:50.871Z,978.09
2018-03-01T00:50:50.854Z,978.12
2018-03-01T00:51:50.879Z,978.10
2018-03-01T00:52:50.826Z,978.16
2018-03-01T00:53:50.818Z,978.12
2018-03-01T00:54:50.802Z,978.15
2018-03-01T00:55:50.785Z,978.11
2018-03-01T00:56:50.821Z,978.09
2018-03-01T00:57:50.762Z,978.05
2018-03-01T00:58:50.748Z,978.03
2018-03-01T00:59:50.733Z,978.06
2018-03-01T01:00:50.723Z,978.03
2018-03-01T01:01:50.749Z,978.02
2018-03-01T01:02:50.693Z,978.02
2018-03-01T01:03:50.680Z,978.01
2018-03-01T01:04:50.965Z,977.99
2018-03-01T01:05:50.656Z,977.97
2018-03-01T01:06:50.695Z,977.97
2018-03-01T01:07:50.667Z,977.98
2018-03-01T01:08:50.616Z,978.01
2018-03-01T01:09:50.604Z,977.93
2018-03-01T01:10:50.590Z,977.92
2018-03-01T01:11:50.579Z,977.88
2018-03-01T01:12:50.604Z,977.87
2018-03-01T01:13:50.552Z,977.78
2018-03-01T01:14:50.537Z,977.72
2018-03-01T01:15:50.524Z,977.69
2018-03-01T01:16:50.511Z,977.71
2018-03-01T01:17:50.544Z,977.74
2018-03-01T01:18:50.518Z,977.72
2018-03-01T01:19:50.470Z,977.73
2018-03-01T01:20:50.454Z,977.75
2018-03-01T01:21:50.435Z,977.72
2018-03-01T01:22:50.462Z,977.61
2018-03-01T01:23:50.411Z,977.62
2018-03-01T01:24:50.395Z,977.58
2018-03-01T01:25:50.384Z,977.59
2018-03-01T01:26:50.369Z,977.61
2018-03-01T01:27:50.399Z,977.58
2018-03-01T01:28:50.343Z,977.56
2018-03-01T01:29:50.331Z,977.59
2018-03-01T01:30:50.317Z,977.61
2018-03-01T01:31:50.303Z,977.62
2018-03-01T01:32:50.331Z,977.64
2018-03-01T01:33:50.278Z,977.60
2018-03-01T01:34:50.263Z,977.56
2018-03-01T01:35:50.250Z,977.51
2018-03-01T01:36:50.238Z,977.51
2018-03-01T01:37:50.269Z,977.52
2018-03-01T01:38:50.213Z,977.48
2018-03-01T01:39:50.196Z,977.51
2018-03-01T01:40:50.183Z,977.57
2018-03-01T01:41:50.170Z,977.55
2018-03-01T01:42:50.202Z,977.54
2018-03-01T01:43:50.147Z,977.53
2018-03-01T01:44:50.131Z,977.50
2018-03-01T01:45:50.116Z,977.48
2018-03-01T01:46:50.104Z,977.49
2018-03-01T01:47:50.133Z,977.52
2018-03-01T01:48:50.080Z,977.54
2018-03-01T01:49:50.062Z,977.54
2018-03-01T01:50:50.053Z,977.56
2018-03-01T01:51:50.037Z,977.58
2018-03-01T01:52:50.061Z,977.61
2018-03-01T01:53:50.009Z,977.58
2018-03-01T01:54:49.997Z,977.58
2018-03-01T01:55:49.986Z,977.62
2018-03-01T01:56:49.969Z,977.61
2018-03-01T01:57:49.999Z,977.61
2018-03-01T01:58:49.945Z,977.61
2018-03-01T01:59:49.931Z,977.59
2018-03-01T02:00:49.912Z,977.55
2018-03-01T02:01:49.903Z,977.50
2018-03-01T02:02:49.925Z,977.46
2018-03-01T02:03:49.873Z,977.49
2018-03-01T02:04:49.859Z,977.50
2018-03-01T02:05:49.845Z,977.47
2018-03-01T02:06:49.833Z,977.46
2018-03-01T02:07:49.858Z,977.45
2018-03-01T02:08:49.806Z,977.39
2018-03-01T02:09:49.794Z,977.35
2018-03-01T02:10:49.790Z,977.31
2018-03-01T02:11:49.765Z,977.28
2018-03-01T02:12:49.793Z,977.24
2018-03-01T02:13:49.740Z,977.27
2018-03-01T02:14:49.725Z,977.26
2018-03-01T02:15:49.711Z,977.21
2018-03-01T02:16:49.697Z,977.22
2018-03-01T02:17:49.744Z,977.15
2018-03-01T02:18:49.671Z,977.18
2018-03-01T02:19:49.657Z,977.14
2018-03-01T02:20:50.495Z,977.11
2018-03-01T02:21:49.628Z,977.12
2018-03-01T02:22:49.615Z,977.07
2018-03-01T02:23:49.644Z,977.09
2018-03-01T02:24:49.590Z,977.04
2018-03-01T02:25:50.079Z,977.04
2018-03-01T02:26:49.560Z,977.02
2018-03-01T02:27:49.585Z,976.99
2018-03-01T02:28:49.534Z,977.02
2018-03-01T02:29:49.521Z,976.98
2018-03-01T02:30:49.510Z,976.97
2018-03-01T02:31:49.494Z,976.97
2018-03-01T02:32:49.522Z,976.97
2018-03-01T02:33:49.467Z,976.99
2018-03-01T02:34:49.453Z,976.99
2018-03-01T02:35:49.441Z,976.90
2018-03-01T02:36:49.425Z,976.90
2018-03-01T02:37:49.451Z,976.83
2018-03-01T02:38:49.397Z,976.83
2018-03-01T02:39:49.382Z,976.82
2018-03-01T02:40:49.370Z,976.79
2018-03-01T02:41:49.355Z,976.70
2018-03-01T02:42:49.392Z,976.70
2018-03-01T02:43:49.329Z,976.64
2018-03-01T02:44:49.315Z,976.65
2018-03-01T02:45:49.302Z,976.56
2018-03-01T02:46:49.291Z,976.57
2018-03-01T02:47:49.317Z,976.54
2018-03-01T02:48:49.270Z,976.55
2018-03-01T02:49:49.247Z,976.49
2018-03-01T02:50:49.233Z,976.46
2018-03-01T02:51:49.214Z,976.41
2018-03-01T02:52:49.248Z,976.44
2018-03-01T02:53:49.192Z,976.45
2018-03-01T02:54:49.175Z,976.46
2018-03-01T02:55:49.164Z,976.46
2018-03-01T02:56:49.149Z,976.45
2018-03-01T02:57:49.182Z,976.44
2018-03-01T02:58:49.125Z,976.47
2018-03-01T02:59:49.108Z,976.48
2018-03-01T03:00:49.095Z,976.46
2018-03-01T03:01:49.084Z,976.42
2018-03-01T03:02:49.109Z,976.45
2018-03-01T03:03:49.098Z,976.44
2018-03-01T03:04:49.044Z,976.39
2018-03-01T03:05:49.026Z,976.43
2018-03-01T03:06:49.015Z,976.39
2018-03-01T03:07:49.001Z,976.38
2018-03-01T03:08:49.028Z,976.42
2018-03-01T03:09:48.974Z,976.39
2018-03-01T03:10:48.959Z,976.38
2018-03-01T03:11:48.950Z,976.37
2018-03-01T03:12:48.972Z,976.34
2018-03-01T03:13:48.955Z,976.36
2018-03-01T03:14:48.974Z,976.33
2018-03-01T03:15:48.887Z,976.34
2018-03-01T03:16:48.875Z,976.29
2018-03-01T03:17:48.864Z,976.31
2018-03-01T03:18:48.892Z,976.24
2018-03-01T03:19:48.833Z,976.23
2018-03-01T03:20:48.818Z,976.23
2018-03-01T03:21:48.809Z,976.22
2018-03-01T03:22:48.792Z,976.15
2018-03-01T03:23:48.821Z,976.12
2018-03-01T03:24:48.763Z,976.09
2018-03-01T03:25:48.751Z,976.06
2018-03-01T03:26:48.735Z,976.04
2018-03-01T03:27:48.720Z,976.03
2018-03-01T03:28:48.758Z,976.05
2018-03-01T03:29:48.700Z,976.01
2018-03-01T03:30:48.684Z,976.00
2018-03-01T03:31:48.668Z,975.97
2018-03-01T03:32:48.714Z,975.92
2018-03-01T03:33:48.678Z,975.93
2018-03-01T03:34:48.626Z,975.91
2018-03-01T03:35:48.613Z,975.98
2018-03-01T03:36:48.600Z,975.98
2018-03-01T03:37:48.588Z,975.98
2018-03-01T03:38:48.609Z,976.00
2018-03-01T03:39:48.559Z,976.03
2018-03-01T03:40:48.549Z,976.06
2018-03-01T03:41:48.529Z,976.05
2018-03-01T03:42:48.515Z,976.04
2018-03-01T03:43:48.541Z,976.09
2018-03-01T03:44:48.561Z,976.06
2018-03-01T03:45:48.474Z,976.08
2018-03-01T03:46:48.459Z,976.10
2018-03-01T03:47:48.445Z,976.13
2018-03-01T03:48:48.473Z,976.15
2018-03-01T03:49:48.418Z,976.20
2018-03-01T03:50:48.405Z,976.21
2018-03-01T03:51:48.391Z,976.23
2018-03-01T03:52:48.380Z,976.23
2018-03-01T03:53:48.407Z,976.22
2018-03-01T03:54:48.348Z,976.21
2018-03-01T03:55:48.335Z,976.20
2018-03-01T03:56:48.319Z,976.18
2018-03-01T03:57:48.309Z,976.15
2018-03-01T03:58:48.824Z,976.10
2018-03-01T03:59:48.281Z,976.10
2018-03-01T04:00:48.267Z,976.12
2018-03-01T04:01:48.253Z,976.13
2018-03-01T04:02:48.285Z,976.13
2018-03-01T04:03:48.271Z,976.19
2018-03-01T04:04:48.212Z,976.18
2018-03-01T04:05:48.197Z,976.24
2018-03-01T04:06:48.183Z,976.21
2018-03-01T04:07:48.169Z,976.22
2018-03-01T04:08:48.199Z,976.20
2018-03-01T04:09:48.146Z,976.20
2018-03-01T04:10:48.128Z,976.23
2018-03-01T04:11:48.115Z,976.27
2018-03-01T04:12:48.103Z,976.26
2018-03-01T04:13:48.133Z,976.26
2018-03-01T04:14:48.075Z,976.27
2018-03-01T04:15:48.062Z,976.28
2018-03-01T04:16:48.048Z,976.26
2018-03-01T04:17:48.074Z,976.28
2018-03-01T04:18:48.019Z,976.26
2018-03-01T04:19:48.045Z,976.24
2018-03-01T04:20:47.992Z,976.20
2018-03-01T04:21:47.978Z,976.22
2018-03-01T04:22:47.963Z,976.18
2018-03-01T04:23:47.949Z,976.20
2018-03-01T04:24:47.976Z,976.16
2018-03-01T04:25:47.922Z,976.13
2018-03-01T04:26:47.915Z,976.08
2018-03-01T04:27:47.897Z,976.05
2018-03-01T04:28:47.885Z,975.99
2018-03-01T04:29:47.915Z,975.99
2018-03-01T04:30:47.855Z,975.93
2018-03-01T04:31:47.844Z,975.95
2018-03-01T04:32:47.867Z,975.87
2018-03-01T04:33:47.827Z,975.84
2018-03-01T04:34:47.849Z,975.81
2018-03-01T04:35:47.786Z,975.78
2018-03-01T04:36:47.775Z,975.77
2018-03-01T04:37:47.802Z,975.75
2018-03-01T04:38:47.750Z,975.74
2018-03-01T04:39:47.774Z,975.75
2018-03-01T04:40:47.720Z,975.74
2018-03-01T04:41:47.694Z,975.73
2018-03-01T04:42:47.686Z,975.71
2018-03-01T04:43:47.663Z,975.71
2018-03-01T04:44:48.240Z,975.74
2018-03-01T04:45:47.636Z,975.70
2018-03-01T04:46:47.624Z,975.68
2018-03-01T04:47:47.652Z,975.65
2018-03-01T04:48:47.596Z,975.69
2018-03-01T04:49:47.622Z,975.65
2018-03-01T04:50:47.571Z,975.61
2018-03-01T04:51:47.557Z,975.64
2018-03-01T04:52:47.543Z,975.66
2018-03-01T04:53:47.531Z,975.67
2018-03-01T04:54:47.561Z,975.64
2018-03-01T04:55:47.501Z,975.64
2018-03-01T04:56:47.489Z,975.63
2018-03-01T04:57:47.510Z,975.63
2018-03-01T04:58:47.463Z,975.59
2018-03-01T04:59:47.445Z,975.56
2018-03-01T05:00:47.436Z,975.58
2018-03-01T05:01:47.459Z,975.57
2018-03-01T05:02:47.404Z,975.56
2018-03-01T05:03:47.391Z,975.53
2018-03-01T05:04:47.379Z,975.52
2018-03-01T05:05:47.362Z,975.49
2018-03-01T05:06:47.388Z,975.47
2018-03-01T05:07:47.335Z,975.47
2018-03-01T05:08:47.322Z,975.51
2018-03-01T05:09:47.306Z,975.52
2018-03-01T05:10:47.295Z,975.48
2018-03-01T05:11:47.316Z,975.54
2018-03-01T05:12:47.266Z,975.52
2018-03-01T05:13:47.249Z,975.53
2018-03-01T05:14:47.243Z,975.48
2018-03-01T05:15:47.222Z,975.46
2018-03-01T05:16:47.249Z,975.37
2018-03-01T05:17:47.195Z,975.43
2018-03-01T05:18:47.180Z,975.39
2018-03-01T05:19:47.170Z,975.41
2018-03-01T05:20:47.153Z,975.41
2018-03-01T05:21:47.179Z,975.36
2018-03-01T05:22:47.126Z,975.34
2018-03-01T05:23:47.117Z,975.29
2018-03-01T05:24:47.098Z,975.25
2018-03-01T05:25:47.847Z,975.18
2018-03-01T05:26:47.114Z,975.19
2018-03-01T05:27:47.056Z,975.20
2018-03-01T05:28:47.042Z,975.17
2018-03-01T05:29:47.029Z,975.20
2018-03-01T05:30:47.015Z,975.22
2018-03-01T05:31:47.037Z,975.18
2018-03-01T05:32:46.986Z,975.20
2018-03-01T05:33:46.973Z,975.19
2018-03-01T05:34:46.958Z,975.16
2018-03-01T05:35:46.947Z,975.17
2018-03-01T05:36:46.966Z,975.10
2018-03-01T05:37:46.918Z,975.09
2018-03-01T05:38:46.903Z,975.04
2018-03-01T05:39:46.889Z,975.13
2018-03-01T05:40:46.873Z,975.08
2018-03-01T05:41:46.898Z,975.10
2018-03-01T05:42:46.860Z,975.03
2018-03-01T05:43:46.832Z,975.02
2018-03-01T05:44:46.820Z,974.99
2018-03-01T05:45:46.805Z,974.98
2018-03-01T05:46:46.832Z,974.88
2018-03-01T05:47:46.778Z,974.90
2018-03-01T05:48:46.763Z,974.89
2018-03-01T05:49:47.711Z,974.85
2018-03-01T05:50:46.733Z,974.81
2018-03-01T05:51:46.758Z,974.78
2018-03-01T05:52:46.711Z,974.77
2018-03-01T05:53:46.700Z,974.75
2018-03-01T05:54:46.683Z,974.78
2018-03-01T05:55:46.662Z,974.75
2018-03-01T05:56:46.692Z,974.75
2018-03-01T05:57:46.637Z,974.73
2018-03-01T05:58:46.621Z,974.70
2018-03-01T05:59:46.604Z,974.72
2018-03-01T06:00:46.595Z,974.74
2018-03-01T06:01:46.630Z,974.73
2018-03-01T06:02:46.565Z,974.73
2018-03-01T06:03:46.551Z,974.78
2018-03-01T06:04:46.537Z,974.72
2018-03-01T06:05:46.534Z,974.77
2018-03-01T06:06:46.546Z,974.73
2018-03-01T06:07:46.497Z,974.77
2018-03-01T06:08:46.480Z,974.78
2018-03-01T06:09:46.464Z,974.81
2018-03-01T06:10:46.453Z,974.82
2018-03-01T06:11:46.487Z,974.86
2018-03-01T06:12:46.424Z,974.84
2018-03-01T06:13:46.408Z,974.83
2018-03-01T06:14:46.397Z,974.89
2018-03-01T06:15:46.381Z,974.88
2018-03-01T06:16:46.407Z,974.88
2018-03-01T06:17:46.394Z,974.88
2018-03-01T06:18:46.342Z,974.84
2018-03-01T06:19:46.328Z,974.85
2018-03-01T06:20:46.310Z,974.89
2018-03-01T06:21:46.299Z,974.96
2018-03-01T06:22:46.328Z,974.98
2018-03-01T06:23:46.269Z,974.95
2018-03-01T06:24:46.255Z,974.92
2018-03-01T06:25:46.248Z,974.93
2018-03-01T06:26:46.264Z,974.92
2018-03-01T06:27:46.213Z,974.87
2018-03-01T06:28:46.242Z,974.89
2018-03-01T06:29:46.188Z,974.90
2018-03-01T06:30:46.171Z,974.90
2018-03-01T06:31:46.159Z,974.94
2018-03-01T06:32:46.185Z,974.91
2018-03-01T06:33:46.133Z,974.92
2018-03-01T06:34:46.115Z,974.90
2018-03-01T06:35:46.102Z,974.90
2018-03-01T06:36:46.092Z,974.89
2018-03-01T06:37:46.111Z,974.87
2018-03-01T06:38:46.063Z,974.85
2018-03-01T06:39:46.091Z,974.80
2018-03-01T06:40:46.202Z,974.74
2018-03-01T06:41:46.093Z,974.78
2018-03-01T06:42:46.058Z,974.83
2018-03-01T06:43:45.997Z,974.87
2018-03-01T06:44:45.981Z,974.91
2018-03-01T06:45:45.966Z,974.95
2018-03-01T06:46:45.950Z,975.01
2018-03-01T06:47:45.976Z,974.98
2018-03-01T06:48:45.968Z,974.94
2018-03-01T06:49:45.914Z,974.96
2018-03-01T06:50:46.854Z,974.94
2018-03-01T06:51:45.886Z,974.92
2018-03-01T06:52:45.879Z,974.90
2018-03-01T06:53:45.907Z,974.87
2018-03-01T06:54:45.849Z,974.89
2018-03-01T06:55:45.838Z,974.82
2018-03-01T06:56:45.825Z,974.83
2018-03-01T06:57:45.814Z,974.83
2018-03-01T06:58:45.840Z,974.86
2018-03-01T06:59:45.795Z,974.84
2018-03-01T07:00:45.780Z,974.91
2018-03-01T07:01:45.766Z,974.87
2018-03-01T07:02:45.757Z,974.88
2018-03-01T07:03:45.788Z,974.86
2018-03-01T07:04:46.442Z,974.85
2018-03-01T07:05:45.727Z,974.89
2018-03-01T07:06:45.715Z,974.86
2018-03-01T07:07:45.706Z,974.84
2018-03-01T07:08:45.730Z,974.85
2018-03-01T07:09:45.686Z,974.83
2018-03-01T07:10:45.674Z,974.86
2018-03-01T07:11:45.661Z,974.88
2018-03-01T07:12:45.655Z,974.88
2018-03-01T07:13:45.682Z,974.89
2018-03-01T07:14:45.633Z,974.88
2018-03-01T07:15:45.626Z,974.90
2018-03-01T07:16:45.624Z,974.90
2018-03-01T07:17:45.654Z,974.91
2018-03-01T07:18:45.597Z,974.87
2018-03-01T07:19:45.594Z,974.95
2018-03-01T07:20:45.587Z,974.88
2018-03-01T07:21:45.644Z,974.86
2018-03-01T07:22:45.606Z,974.88
2018-03-01T07:23:45.555Z,974.89
2018-03-01T07:24:45.546Z,974.81
2018-03-01T07:25:45.536Z,974.87
2018-03-01T07:26:45.529Z,974.81
2018-03-01T07:27:45.564Z,974.84
2018-03-01T07:28:45.511Z,974.85
2018-03-01T07:29:45.502Z,974.76
2018-03-01T07:30:45.497Z,974.76
2018-03-01T07:31:45.483Z,974.68
2018-03-01T07:32:45.517Z,974.78
2018-03-01T07:33:45.469Z,974.77
2018-03-01T07:34:45.463Z,974.74
2018-03-01T07:35:45.455Z,974.71
2018-03-01T07:36:45.446Z,974.72
2018-03-01T07:37:45.482Z,974.71
2018-03-01T07:38:45.434Z,974.70
2018-03-01T07:39:45.424Z,974.65
2018-03-01T07:40:45.419Z,974.62
2018-03-01T07:41:45.410Z,974.59
2018-03-01T07:42:45.442Z,974.52
2018-03-01T07:43:45.396Z,974.57
2018-03-01T07:44:45.389Z,974.64
2018-03-01T07:45:45.382Z,974.51
2018-03-01T07:46:45.376Z,974.51
2018-03-01T07:47:45.406Z,974.45
2018-03-01T07:48:45.364Z,974.46
2018-03-01T07:49:45.357Z,974.40
2018-03-01T07:50:45.350Z,974.42
2018-03-01T07:51:45.341Z,974.45
2018-03-01T07:52:45.375Z,974.48
2018-03-01T07:53:45.332Z,974.50
2018-03-01T07:54:45.324Z,974.45
2018-03-01T07:55:45.317Z,974.42
2018-03-01T07:56:45.313Z,974.36
2018-03-01T07:57:45.346Z,974.38
2018-03-01T07:58:45.301Z,974.34
2018-03-01T07:59:45.293Z,974.44
2018-03-01T08:00:45.287Z,974.37
2018-03-01T08:01:45.281Z,974.36
2018-03-01T08:02:45.319Z,974.30
2018-03-01T08:03:45.270Z,974.28
2018-03-01T08:04:45.267Z,974.29
2018-03-01T08:05:45.262Z,974.26
2018-03-01T08:06:45.259Z,974.23
2018-03-01T08:07:45.293Z,974.22
2018-03-01T08:08:45.244Z,974.23
2018-03-01T08:09:45.240Z,974.14
2018-03-01T08:10:45.251Z,974.10
2018-03-01T08:11:45.271Z,974.10
2018-03-01T08:12:45.228Z,974.13
2018-03-01T08:13:45.223Z,974.20
2018-03-01T08:14:45.220Z,974.22
2018-03-01T08:15:45.213Z,974.25
2018-03-01T08:16:45.283Z,974.13
2018-03-01T08:17:45.207Z,974.10
2018-03-01T08:18:45.203Z,974.09
2018-03-01T08:19:45.197Z,974.07
2018-03-01T08:20:45.193Z,974.06
2018-03-01T08:21:45.233Z,974.03
2018-03-01T08:22:45.188Z,974.08
2018-03-01T08:23:45.226Z,974.00
2018-03-01T08:24:45.179Z,974.04
2018-03-01T08:25:45.174Z,974.11
2018-03-01T08:26:45.171Z,974.05
2018-03-01T08:27:45.206Z,973.97
2018-03-01T08:28:45.165Z,974.03
2018-03-01T08:29:45.160Z,974.01
2018-03-01T08:30:45.157Z,974.01
2018-03-01T08:31:45.160Z,973.94
2018-03-01T08:32:45.195Z,974.08
2018-03-01T08:33:45.149Z,974.03
2018-03-01T08:34:45.148Z,974.09
2018-03-01T08:35:45.143Z,974.00
2018-03-01T08:36:45.140Z,973.99
2018-03-01T08:37:45.180Z,973.96
2018-03-01T08:38:45.176Z,974.04
2018-03-01T08:39:45.131Z,973.96
2018-03-01T08:40:45.131Z,973.93
2018-03-01T08:41:45.126Z,973.88
2018-03-01T08:42:45.127Z,973.92
2018-03-01T08:43:45.164Z,973.83
2018-03-01T08:44:45.119Z,973.85
2018-03-01T08:45:45.365Z,973.85
2018-03-01T08:46:45.117Z,973.72
2018-03-01T08:47:45.117Z,973.79
2018-03-01T08:48:45.166Z,973.81
2018-03-01T08:49:45.113Z,973.82
2018-03-01T08:50:45.108Z,973.75
2018-03-01T08:51:45.104Z,973.76
2018-03-01T08:52:45.145Z,973.75
2018-03-01T08:53:45.110Z,973.63
2018-03-01T08:54:45.103Z,973.67
2018-03-01T08:55:45.098Z,973.65
2018-03-01T08:56:45.097Z,973.60
2018-03-01T08:57:45.136Z,973.60
2018-03-01T08:58:45.094Z,973.52
2018-03-01T08:59:45.095Z,973.53
2018-03-01T09:00:45.105Z,973.50
2018-03-01T09:01:45.092Z,973.44
2018-03-01T09:02:45.134Z,973.46
2018-03-01T09:03:45.129Z,973.57
2018-03-01T09:04:45.085Z,973.55
2018-03-01T09:05:45.085Z,973.57
2018-03-01T09:06:45.086Z,973.52
2018-03-01T09:07:45.080Z,973.52
2018-03-01T09:08:45.116Z,973.55
2018-03-01T09:09:45.081Z,973.57
2018-03-01T09:10:45.081Z,973.59
2018-03-01T09:11:45.079Z,973.57
2018-03-01T09:12:45.075Z,973.61
2018-03-01T09:13:45.117Z,973.62
2018-03-01T09:14:45.073Z,973.59
2018-03-01T09:15:45.073Z,973.62
2018-03-01T09:16:45.074Z,973.51
2018-03-01T09:17:45.075Z,973.58
2018-03-01T09:18:45.118Z,973.54
2018-03-01T09:19:45.696Z,973.60
2018-03-01T09:20:45.074Z,973.51
2018-03-01T09:21:45.072Z,973.53
2018-03-01T09:22:45.091Z,973.45
2018-03-01T09:23:45.117Z,973.55
2018-03-01T09:24:45.133Z,973.50
2018-03-01T09:25:45.075Z,973.45
2018-03-01T09:26:45.073Z,973.46
2018-03-01T09:27:45.074Z,973.47
2018-03-01T09:28:45.073Z,973.47
2018-03-01T09:29:45.113Z,973.36
2018-03-01T09:30:45.074Z,973.35
2018-03-01T09:31:45.078Z,973.38
2018-03-01T09:32:45.077Z,973.33
2018-03-01T09:33:45.123Z,973.36
2018-03-01T09:34:45.076Z,973.35
2018-03-01T09:35:45.076Z,973.26
2018-03-01T09:36:45.077Z,973.33
2018-03-01T09:37:45.078Z,973.25
2018-03-01T09:38:45.298Z,973.23
2018-03-01T09:39:45.214Z,973.22
2018-03-01T09:40:45.079Z,973.08
2018-03-01T09:41:45.085Z,973.14
2018-03-01T09:42:45.082Z,973.19
2018-03-01T09:43:45.120Z,973.17
2018-03-01T09:44:45.120Z,973.15
2018-03-01T09:45:45.085Z,973.09
2018-03-01T09:46:45.083Z,973.13
2018-03-01T09:47:45.088Z,973.14
2018-03-01T09:48:45.134Z,973.07
2018-03-01T09:49:45.089Z,973.01
2018-03-01T09:50:45.090Z,973.04
2018-03-01T09:51:45.096Z,973.05
2018-03-01T09:52:45.093Z,973.04
2018-03-01T09:53:45.138Z,973.00
2018-03-01T09:54:45.103Z,973.01
2018-03-01T09:55:45.096Z,973.03
2018-03-01T09:56:45.097Z,972.97
2018-03-01T09:57:45.102Z,972.96
2018-03-01T09:58:45.138Z,972.99
2018-03-01T09:59:45.866Z,973.01
2018-03-01T10:00:45.121Z,973.04
2018-03-01T10:01:45.107Z,973.08
2018-03-01T10:02:45.112Z,973.07
2018-03-01T10:03:45.147Z,973.07
2018-03-01T10:04:45.114Z,973.05
2018-03-01T10:05:45.116Z,973.04
2018-03-01T10:06:45.114Z,973.07
2018-03-01T10:07:45.118Z,973.03
2018-03-01T10:08:45.165Z,973.10
2018-03-01T10:09:45.122Z,973.04
2018-03-01T10:10:45.125Z,973.05
2018-03-01T10:11:45.140Z,973.07
2018-03-01T10:12:45.127Z,973.02
2018-03-01T10:13:45.176Z,973.05
2018-03-01T10:14:45.135Z,972.95
2018-03-01T10:15:45.137Z,972.96
2018-03-01T10:16:45.280Z,972.99
2018-03-01T10:17:45.142Z,972.95
2018-03-01T10:18:45.626Z,972.92
2018-03-01T10:19:45.151Z,972.82
2018-03-01T10:20:45.205Z,972.82
2018-03-01T10:21:45.155Z,972.76
2018-03-01T10:22:45.881Z,972.71
2018-03-01T10:23:45.197Z,972.69
2018-03-01T10:24:45.210Z,972.59
2018-03-01T10:25:45.164Z,972.76
2018-03-01T10:26:46.217Z,972.65
2018-03-01T10:27:45.195Z,972.77
2018-03-01T10:28:45.173Z,972.74
2018-03-01T10:29:45.216Z,972.74
2018-03-01T10:30:47.118Z,972.66
2018-03-01T10:31:45.185Z,972.63
2018-03-01T10:32:45.220Z,972.60
2018-03-01T10:33:45.265Z,972.56
2018-03-01T10:34:45.244Z,972.63
2018-03-01T10:35:45.313Z,972.59
2018-03-01T10:36:45.315Z,972.60
2018-03-01T10:37:45.210Z,972.59
2018-03-01T10:38:45.830Z,972.61
2018-03-01T10:39:45.278Z,972.58
2018-03-01T10:40:45.427Z,972.50
2018-03-01T10:41:45.221Z,972.48
2018-03-01T10:42:45.226Z,972.51
2018-03-01T10:43:45.336Z,972.50
2018-03-01T10:44:45.280Z,972.45
2018-03-01T10:45:45.240Z,972.49
2018-03-01T10:46:45.243Z,972.47
2018-03-01T10:47:45.244Z,972.43
2018-03-01T10:48:45.250Z,972.39
2018-03-01T10:49:45.389Z,972.43
2018-03-01T10:50:45.273Z,972.45
2018-03-01T10:51:45.266Z,972.41
2018-03-01T10:52:45.270Z,972.39
2018-03-01T10:53:45.268Z,972.45
2018-03-01T10:54:45.276Z,972.53
2018-03-01T10:55:45.321Z,972.52
2018-03-01T10:56:45.278Z,972.43
2018-03-01T10:57:45.286Z,972.47
2018-03-01T10:58:45.286Z,972.37
2018-03-01T10:59:45.293Z,972.40
2018-03-01T11:00:45.342Z,972.35
2018-03-01T11:01:45.300Z,972.38
2018-03-01T11:02:45.308Z,972.36
2018-03-01T11:03:45.307Z,972.38
2018-03-01T11:04:45.312Z,972.31
2018-03-01T11:05:45.364Z,972.22
2018-03-01T11:06:45.323Z,972.26
2018-03-01T11:07:45.329Z,972.24
2018-03-01T11:08:45.332Z,972.25
2018-03-01T11:09:45.334Z,972.21
2018-03-01T11:10:45.393Z,972.20
2018-03-01T11:11:45.344Z,972.18
2018-03-01T11:12:45.351Z,972.11
2018-03-01T11:13:45.355Z,972.16
2018-03-01T11:14:45.405Z,972.11
2018-03-01T11:15:45.403Z,972.09
2018-03-01T11:16:45.371Z,972.10
2018-03-01T11:17:45.375Z,972.15
2018-03-01T11:18:45.379Z,972.07
2018-03-01T11:19:45.510Z,972.02
2018-03-01T11:20:45.426Z,972.04
2018-03-01T11:21:46.195Z,972.09
2018-03-01T11:22:45.404Z,972.08
2018-03-01T11:23:45.405Z,972.12
2018-03-01T11:24:45.455Z,972.01
2018-03-01T11:25:45.417Z,972.03
2018-03-01T11:26:45.419Z,972.02
2018-03-01T11:27:45.424Z,972.11
2018-03-01T11:28:45.427Z,972.01
2018-03-01T11:29:45.495Z,971.95
2018-03-01T11:30:45.439Z,971.97
2018-03-01T11:31:45.443Z,971.95
2018-03-01T11:32:45.453Z,971.90
2018-03-01T11:33:45.457Z,971.86
2018-03-01T11:34:45.538Z,971.86
2018-03-01T11:35:45.509Z,971.89
2018-03-01T11:36:45.468Z,971.87
2018-03-01T11:37:45.472Z,971.85
2018-03-01T11:38:45.481Z,971.87
2018-03-01T11:39:45.482Z,971.90
2018-03-01T11:40:45.524Z,971.86
2018-03-01T11:41:45.495Z,971.86
2018-03-01T11:42:45.498Z,971.85
2018-03-01T11:43:45.502Z,971.74
2018-03-01T11:44:45.511Z,971.77
2018-03-01T11:45:45.557Z,971.73
2018-03-01T11:46:45.517Z,971.80
2018-03-01T11:47:45.523Z,971.77
2018-03-01T11:48:45.527Z,971.74
2018-03-01T11:49:45.537Z,971.72
2018-03-01T11:50:46.581Z,971.65
2018-03-01T11:51:45.584Z,971.66
2018-03-01T11:52:45.550Z,971.61
2018-03-01T11:53:45.558Z,971.72
2018-03-01T11:54:45.561Z,971.66
2018-03-01T11:55:45.565Z,971.62
2018-03-01T11:56:45.606Z,971.62
2018-03-01T11:57:45.575Z,971.69
2018-03-01T11:58:45.580Z,971.63
2018-03-01T11:59:45.584Z,971.59
2018-03-01T12:00:45.591Z,971.64
2018-03-01T12:01:45.638Z,971.58
2018-03-01T12:02:45.601Z,971.57
2018-03-01T12:03:45.606Z,971.49
2018-03-01T12:04:45.611Z,971.52
2018-03-01T12:05:45.661Z,971.50
2018-03-01T12:06:45.623Z,971.51
2018-03-01T12:07:45.629Z,971.54
2018-03-01T12:08:45.635Z,971.52
2018-03-01T12:09:45.640Z,971.48
2018-03-01T12:10:45.685Z,971.53
2018-03-01T12:11:45.650Z,971.46
2018-03-01T12:12:45.659Z,971.44
2018-03-01T12:13:45.659Z,971.51
2018-03-01T12:14:45.669Z,971.38
2018-03-01T12:15:45.711Z,971.36
2018-03-01T12:16:45.676Z,971.34
2018-03-01T12:17:45.682Z,971.37
2018-03-01T12:18:45.686Z,971.42
2018-03-01T12:19:45.693Z,971.31
2018-03-01T12:20:45.735Z,971.32
2018-03-01T12:21:45.937Z,971.23
2018-03-01T12:22:45.708Z,971.22
2018-03-01T12:23:45.712Z,971.24
2018-03-01T12:24:45.717Z,971.21
2018-03-01T12:25:45.775Z,971.20
2018-03-01T12:26:45.729Z,971.18
2018-03-01T12:27:45.729Z,971.22
2018-03-01T12:28:45.736Z,971.20